createdAt,value
2023-01-11T00:00:02.911Z,23.30
2023-01-11T00:05:39.476Z,22.60
2023-01-11T00:10:43.761Z,22.42
2023-01-11T00:15:49.451Z,22.60
2023-01-11T00:20:53.626Z,23.05
2023-01-11T00:25:57.854Z,26.52
2023-01-11T00:31:03.843Z,24.67
2023-01-11T00:36:08.992Z,25.23
2023-01-11T00:41:31.775Z,25.30
2023-01-11T00:46:54.433Z,23.90
2023-01-11T00:51:58.785Z,22.67
2023-01-11T00:57:03.139Z,25.15
2023-01-11T01:02:09.880Z,27.23
2023-01-11T01:07:14.230Z,22.10
2023-01-11T01:12:39.549Z,25.25
2023-01-11T01:17:48.274Z,25.25
2023-01-11T01:22:52.777Z,24.67
2023-01-11T01:27:57.441Z,28.23
2023-01-11T01:33:03.150Z,24.00
2023-01-11T01:43:12.816Z,25.88
2023-01-11T01:48:23.325Z,26.55
2023-01-11T01:53:32.308Z,26.83
2023-01-11T01:58:40.236Z,27.08
2023-01-11T02:03:46.259Z,27.52
2023-01-11T02:08:58.218Z,21.38
2023-01-11T02:14:13.474Z,21.80
2023-01-11T02:19:30.938Z,27.90
2023-01-11T02:24:58.020Z,24.77
2023-01-11T02:30:15.648Z,24.73
2023-01-11T02:35:27.359Z,24.45
2023-01-11T02:40:43.015Z,25.77
2023-01-11T02:45:54.028Z,24.17
2023-01-11T02:51:05.455Z,23.52
2023-01-11T02:56:13.562Z,26.35
2023-01-11T03:01:23.614Z,22.45
2023-01-11T03:06:33.466Z,22.17
2023-01-11T03:12:08.366Z,21.80
2023-01-11T03:17:23.432Z,21.48
2023-01-11T03:22:39.430Z,22.73
2023-01-11T03:32:59.605Z,18.80
2023-01-11T03:38:08.661Z,21.88
2023-01-11T03:43:16.169Z,22.58
2023-01-11T03:48:27.564Z,23.75
2023-01-11T03:53:36.880Z,21.67
2023-01-11T03:58:41.122Z,25.83
2023-01-11T04:03:47.019Z,24.58
2023-01-11T04:13:55.362Z,22.83
2023-01-11T04:19:02.984Z,22.17
2023-01-11T04:24:07.808Z,21.58
2023-01-11T04:29:12.361Z,21.17
2023-01-11T04:34:18.135Z,25.08
2023-01-11T04:44:26.685Z,23.48
2023-01-11T04:49:32.601Z,24.30
2023-01-11T04:59:41.140Z,23.25
2023-01-11T05:04:47.024Z,23.60
2023-01-11T05:14:55.205Z,25.08
2023-01-11T05:20:01.108Z,21.60
2023-01-11T05:25:06.151Z,25.27
2023-01-11T05:30:12.061Z,25.07
2023-01-11T05:40:22.472Z,22.15
2023-01-11T05:45:33.659Z,28.15
2023-01-11T05:50:39.615Z,23.90
2023-01-11T06:00:58.193Z,30.98
2023-01-11T06:06:04.036Z,29.92
2023-01-11T06:11:08.363Z,29.00
2023-01-11T06:16:14.883Z,29.02
2023-01-11T06:21:21.593Z,29.73
2023-01-11T06:26:25.922Z,26.55
2023-01-11T06:31:30.169Z,29.70
2023-01-11T06:36:35.874Z,28.27
2023-01-11T06:41:40.084Z,26.85
2023-01-11T06:46:44.517Z,24.70
2023-01-11T06:51:50.712Z,32.45
2023-01-11T06:56:56.271Z,35.25
2023-01-11T07:02:02.413Z,28.98
2023-01-11T07:07:08.057Z,31.85
2023-01-11T07:17:16.815Z,31.13
2023-01-11T07:22:22.645Z,30.00
2023-01-11T07:27:27.073Z,34.88
2023-01-11T07:32:32.285Z,29.20
2023-01-11T07:37:41.663Z,31.13
2023-01-11T07:43:07.816Z,30.83
2023-01-11T07:48:12.734Z,35.70
2023-01-11T07:53:19.103Z,35.00
2023-01-11T07:58:23.651Z,31.63
2023-01-11T08:03:28.241Z,37.13
2023-01-11T08:08:34.134Z,39.78
2023-01-11T08:18:59.727Z,36.85
2023-01-11T08:24:05.785Z,35.65
2023-01-11T08:29:10.503Z,37.78
2023-01-11T08:34:15.737Z,36.25
2023-01-11T08:39:23.775Z,33.33
2023-01-11T08:44:35.350Z,27.48
2023-01-11T08:49:42.993Z,34.05
2023-01-11T08:54:49.011Z,32.63
2023-01-11T08:59:53.377Z,33.40
2023-01-11T09:04:57.655Z,30.40
2023-01-11T09:10:03.637Z,35.42
2023-01-11T09:15:09.856Z,37.97
2023-01-11T09:20:14.365Z,37.80
2023-01-11T09:25:20.941Z,38.03
2023-01-11T09:30:25.642Z,39.33
2023-01-11T09:35:29.871Z,33.42
2023-01-11T09:40:49.245Z,38.35
2023-01-11T09:45:56.169Z,39.67
2023-01-11T09:51:01.742Z,36.60
2023-01-11T10:01:24.604Z,31.83
2023-01-11T10:06:34.849Z,32.50
2023-01-11T10:18:25.907Z,41.50
2023-01-11T10:23:04.482Z,37.78
2023-01-11T10:28:23.133Z,39.08
2023-01-11T10:33:49.971Z,30.30
2023-01-11T10:39:12.246Z,31.25
2023-01-11T10:44:26.865Z,32.05
2023-01-11T10:49:46.421Z,28.83
2023-01-11T10:54:54.984Z,25.08
2023-01-11T11:00:17.770Z,22.50
2023-01-11T11:05:34.101Z,22.25
2023-01-11T11:10:48.104Z,22.92
2023-01-11T11:16:02.451Z,23.20
2023-01-11T11:21:17.673Z,19.08
2023-01-11T11:26:23.323Z,18.63
2023-01-11T11:31:30.429Z,16.30
2023-01-11T11:36:43.638Z,19.73
2023-01-11T11:41:50.616Z,17.10
2023-01-11T11:47:01.059Z,18.30
2023-01-11T11:52:07.451Z,18.33
2023-01-11T11:57:18.252Z,17.38
2023-01-11T12:02:28.948Z,16.30
2023-01-11T12:07:49.818Z,17.73
2023-01-11T12:13:00.060Z,15.80
2023-01-11T12:18:27.092Z,15.90
2023-01-11T12:23:31.296Z,16.02
2023-01-11T12:29:04.579Z,14.80
2023-01-11T12:34:26.907Z,13.57
2023-01-11T12:39:39.915Z,14.02
2023-01-11T12:44:59.323Z,14.77
2023-01-11T12:50:10.977Z,12.90
2023-01-11T12:55:28.784Z,12.30
2023-01-11T13:01:08.424Z,11.48
2023-01-11T13:06:19.904Z,10.73
2023-01-11T13:11:37.369Z,11.52
2023-01-11T13:16:49.649Z,12.75
2023-01-11T13:21:57.716Z,14.43
2023-01-11T13:27:05.072Z,15.73
2023-01-11T13:32:17.255Z,15.43
2023-01-11T13:37:29.104Z,14.05
2023-01-11T13:42:38.305Z,13.98
2023-01-11T13:47:46.995Z,13.93
2023-01-11T13:53:03.535Z,12.65
2023-01-11T13:58:15.279Z,11.60
2023-01-11T14:03:30.391Z,11.48
2023-01-11T14:09:04.536Z,7.83
2023-01-11T14:14:38.209Z,7.32
2023-01-11T14:19:48.325Z,8.43
2023-01-11T14:25:01.077Z,8.52
2023-01-11T14:30:27.896Z,9.82
2023-01-11T14:35:49.399Z,8.48
2023-01-11T14:41:37.257Z,8.57
2023-01-11T14:47:20.758Z,7.88
2023-01-11T14:52:39.285Z,7.22
2023-01-11T14:58:02.559Z,8.25
2023-01-11T15:03:36.129Z,7.75
2023-01-11T15:08:45.215Z,11.15
2023-01-11T15:13:57.346Z,10.88
2023-01-11T15:19:06.058Z,14.25
2023-01-11T15:24:23.739Z,11.77
2023-01-11T15:29:32.556Z,12.95
2023-01-11T15:34:44.858Z,12.60
2023-01-11T15:39:58.554Z,18.40
2023-01-11T15:45:29.455Z,15.15
2023-01-11T15:51:03.303Z,14.10
2023-01-11T15:56:44.025Z,9.75
2023-01-11T16:02:07.953Z,15.38
2023-01-11T16:07:19.203Z,15.77
2023-01-11T16:12:44.180Z,13.35
2023-01-11T16:17:51.002Z,11.13
2023-01-11T16:22:58.284Z,14.02
2023-01-11T16:28:03.887Z,15.77
2023-01-11T16:33:22.815Z,14.75
2023-01-11T16:38:27.434Z,14.63
2023-01-11T16:43:34.411Z,15.32
2023-01-11T16:48:39.986Z,16.73
2023-01-11T16:53:47.163Z,15.77
2023-01-11T16:59:09.229Z,13.60
2023-01-11T17:04:28.206Z,12.05
2023-01-11T17:09:32.411Z,9.45
2023-01-11T17:14:55.682Z,14.15
2023-01-11T17:20:02.563Z,14.63
2023-01-11T17:25:14.164Z,10.18
2023-01-11T17:30:20.671Z,14.88
2023-01-11T17:35:28.057Z,11.82
2023-01-11T17:40:35.518Z,14.60
2023-01-11T17:45:40.387Z,16.80
2023-01-11T17:50:51.336Z,11.40
2023-01-11T17:55:57.270Z,8.48
2023-01-11T18:01:22.526Z,10.35
2023-01-11T18:06:35.538Z,9.00
2023-01-11T18:11:42.683Z,10.30
2023-01-11T18:16:58.145Z,10.88
2023-01-11T18:22:05.501Z,10.32
2023-01-11T18:27:31.573Z,10.85
2023-01-11T18:32:38.016Z,11.30
2023-01-11T18:37:43.566Z,10.45
2023-01-11T18:42:49.967Z,13.23
2023-01-11T18:47:54.372Z,12.70
2023-01-11T18:53:00.097Z,13.27
2023-01-11T18:58:04.223Z,11.93
2023-01-11T19:03:11.082Z,14.70
2023-01-11T19:08:16.873Z,17.65
2023-01-11T19:13:21.213Z,13.05
2023-01-11T19:18:25.507Z,16.42
2023-01-11T19:23:31.244Z,11.82
2023-01-11T19:28:35.722Z,12.55
2023-01-11T19:33:41.696Z,13.10
2023-01-11T19:38:47.395Z,12.68
2023-01-11T19:48:56.663Z,11.02
2023-01-11T19:54:02.145Z,12.10
2023-01-11T19:59:06.674Z,12.85
2023-01-11T20:04:12.839Z,10.32
2023-01-11T20:09:18.756Z,9.52
2023-01-11T20:14:23.152Z,8.93
2023-01-11T20:19:27.356Z,10.07
2023-01-11T20:24:32.951Z,10.18
2023-01-11T20:29:37.020Z,9.80
2023-01-11T20:34:41.185Z,10.05
2023-01-11T20:39:47.008Z,9.20
2023-01-11T20:44:51.194Z,8.50
2023-01-11T20:49:55.429Z,9.48
2023-01-11T20:55:01.118Z,9.15
2023-01-11T21:00:07.651Z,9.90
2023-01-11T21:05:12.101Z,10.10
2023-01-11T21:10:18.024Z,8.43
2023-01-11T21:20:26.112Z,9.95
2023-01-11T21:25:34.801Z,10.30
2023-01-11T21:30:38.983Z,13.20
2023-01-11T21:35:43.436Z,37.78
2023-01-11T21:40:49.317Z,12.82
2023-01-11T21:45:56.731Z,11.85
2023-01-11T21:51:01.543Z,25.92
2023-01-11T21:56:09.055Z,15.00
2023-01-11T22:01:14.471Z,12.65
2023-01-11T22:06:18.895Z,10.65
2023-01-11T22:11:24.474Z,12.00
2023-01-11T22:16:28.567Z,11.52
2023-01-11T22:21:32.677Z,15.70
2023-01-11T22:26:39.125Z,16.73
2023-01-11T22:31:45.881Z,18.23
2023-01-11T22:36:50.273Z,16.77
2023-01-11T22:41:55.844Z,15.88
2023-01-11T22:47:00.607Z,14.52
2023-01-11T22:52:06.679Z,14.77
2023-01-11T22:57:13.445Z,14.43
2023-01-11T23:02:17.731Z,14.65
2023-01-11T23:07:22.027Z,14.30
2023-01-11T23:12:44.775Z,18.35
2023-01-11T23:17:49.027Z,20.13
2023-01-11T23:22:53.149Z,15.70
2023-01-11T23:27:58.717Z,16.58
2023-01-11T23:33:02.848Z,15.43
2023-01-11T23:38:07.351Z,16.05
2023-01-11T23:43:12.848Z,16.35
2023-01-11T23:48:16.925Z,13.75
2023-01-11T23:53:23.104Z,17.52
2023-01-11T23:58:28.850Z,27.75
